首页
METAR-TAF:

METAR-TAF

机场 :

喬治·布什洲際機場

休斯敦, 得克萨斯州, 美国

纬度: 29-59-33N, 经度: 095-21-50W, 海拔: 29米

当前天气观测

该预报发布于1小时和1分钟前的15:53 UTC
风速5节,风向西转西南
温度 25°C
湿度 83%
气压 1014 hPa
能見度: 16.1公里
多云层高于1500英尺
多云层高于18000英尺
多云层高于25000英尺

METAR: KIAH 231553Z 24005KT 10SM BKN015 BKN180 BKN250 25/22 A2994 RMK AO2 SLP137 T02500217

时间: 11:54 (16:54 UTC)

预报

该预报发布于56分钟前的15:58 UTC
预报有效从23日的 16点(UTC)到 24日的 18点(UTC)
风速5节,风向西转西南
能見度: 10公里
多云层高于1500英尺
多云层高于6000英尺
从 23日的 1800点(UTC)
风速6节,风向西
能見度: 10公里
多云层高于3500英尺
从 24日的 0200点(UTC)
风速3节,风向多变
能見度: 10公里
多云层高于4500英尺
从 24日的 1200点(UTC)
风速4节,风向多变
能見度: 10公里
散云层高于25000英尺

TAF: KIAH 231558Z 2316/2418 25005KT P6SM BKN015 BKN060 FM231800 28006KT P6SM BKN035 FM240200 VRB03KT P6SM BKN045 FM241200 VRB04KT P6SM SCT250

超过4000个机场的气象观测和天气预报(METAR&TAF报告)。

可查询的气象台以黄色和红色小点在地图上表示。

将鼠标移到小点上方,可查看气象台名称。

然后点击查看天气观测和预报。

如需切换地图:点击带黑十字的绿色按钮放大地图;点击带横线的绿色按钮缩小地图;或者点击绿色箭头查看邻近地区的地图。


METAR-TAF: